createdAt,value
2022-11-10T00:02:06.881Z,3.83
2022-11-10T00:04:52.079Z,3.80
2022-11-10T00:07:37.680Z,3.57
2022-11-10T00:10:23.644Z,3.30
2022-11-10T00:13:08.848Z,3.40
2022-11-10T00:16:13.131Z,3.73
2022-11-10T00:18:58.485Z,3.83
2022-11-10T00:21:43.674Z,3.90
2022-11-10T00:24:29.030Z,3.80
2022-11-10T00:27:14.840Z,4.00
2022-11-10T00:30:00.519Z,3.83
2022-11-10T00:32:48.221Z,4.37
2022-11-10T00:35:33.074Z,3.87
2022-11-10T00:38:18.211Z,4.50
2022-11-10T00:41:04.838Z,4.37
2022-11-10T00:43:49.680Z,4.67
2022-11-10T00:46:34.940Z,4.63
2022-11-10T00:49:20.062Z,4.77
2022-11-10T00:52:05.841Z,5.40
2022-11-10T00:54:51.038Z,5.43
2022-11-10T00:57:36.307Z,5.43
2022-11-10T01:00:21.670Z,4.57
2022-11-10T01:03:07.457Z,5.33
2022-11-10T01:05:52.339Z,5.27
2022-11-10T01:08:38.300Z,5.57
2022-11-10T01:11:26.184Z,5.40
2022-11-10T01:14:11.223Z,5.67
2022-11-10T01:16:56.108Z,5.97
2022-11-10T01:19:42.357Z,5.17
2022-11-10T01:22:27.410Z,5.83
2022-11-10T01:25:12.924Z,6.10
2022-11-10T01:27:58.008Z,5.93
2022-11-10T01:30:43.133Z,6.23
2022-11-10T01:33:28.709Z,6.23
2022-11-10T01:36:13.792Z,6.40
2022-11-10T01:38:58.648Z,6.60
2022-11-10T01:41:43.473Z,6.60
2022-11-10T01:44:28.768Z,6.80
2022-11-10T01:47:14.083Z,6.73
2022-11-10T01:49:59.051Z,6.33
2022-11-10T01:52:48.717Z,7.10
2022-11-10T01:55:36.211Z,7.03
2022-11-10T01:58:34.005Z,7.90
2022-11-10T02:01:19.327Z,7.50
2022-11-10T02:04:11.334Z,7.97
2022-11-10T02:06:56.984Z,8.03
2022-11-10T02:09:42.413Z,7.83
2022-11-10T02:12:39.052Z,7.87
2022-11-10T02:15:24.453Z,7.50
2022-11-10T02:18:09.893Z,7.57
2022-11-10T02:20:55.035Z,8.00
2022-11-10T02:23:40.089Z,8.07
2022-11-10T02:26:28.932Z,7.63
2022-11-10T02:29:15.384Z,7.73
2022-11-10T02:32:00.217Z,8.33
2022-11-10T02:34:45.225Z,8.50
2022-11-10T02:37:30.235Z,7.77
2022-11-10T02:40:15.605Z,8.53
2022-11-10T02:43:02.549Z,8.70
2022-11-10T02:45:47.670Z,7.40
2022-11-10T02:48:32.718Z,8.57
2022-11-10T02:51:18.143Z,9.07
2022-11-10T02:54:03.462Z,9.03
2022-11-10T02:56:48.562Z,8.53
2022-11-10T02:59:33.469Z,9.47
2022-11-10T03:02:18.734Z,9.60
2022-11-10T03:05:05.340Z,9.37
2022-11-10T03:07:56.713Z,10.23
2022-11-10T03:10:41.807Z,10.00
2022-11-10T03:13:35.681Z,10.10
2022-11-10T03:16:31.644Z,9.77
2022-11-10T03:19:16.551Z,10.53
2022-11-10T03:22:02.486Z,11.40
2022-11-10T03:24:47.655Z,11.50
2022-11-10T03:27:32.914Z,10.13
2022-11-10T03:30:17.948Z,10.93
2022-11-10T03:33:03.080Z,10.87
2022-11-10T03:35:48.506Z,11.03
2022-11-10T03:38:33.497Z,11.23
2022-11-10T03:41:20.436Z,10.90
2022-11-10T03:44:06.386Z,11.60
2022-11-10T03:46:51.827Z,11.67
2022-11-10T03:49:37.384Z,11.87
2022-11-10T03:52:22.223Z,11.13
2022-11-10T03:55:07.857Z,12.67
2022-11-10T03:57:52.910Z,11.80
2022-11-10T04:00:38.403Z,12.63
2022-11-10T04:03:24.086Z,12.57
2022-11-10T04:06:29.823Z,12.90
2022-11-10T04:09:14.980Z,11.73
2022-11-10T04:12:23.678Z,12.33
2022-11-10T04:15:31.638Z,12.03
2022-11-10T04:18:24.680Z,13.60
2022-11-10T04:21:12.140Z,12.93
2022-11-10T04:23:57.133Z,13.03
2022-11-10T04:26:43.006Z,13.60
2022-11-10T04:29:27.848Z,13.37
2022-11-10T04:32:12.812Z,13.37
2022-11-10T04:34:57.981Z,13.67
2022-11-10T04:37:42.859Z,14.27
2022-11-10T04:40:28.034Z,14.13
2022-11-10T04:43:13.181Z,13.50
2022-11-10T04:45:58.915Z,15.60
2022-11-10T04:48:43.764Z,14.93
2022-11-10T04:51:37.399Z,14.97
2022-11-10T04:54:22.734Z,16.27
2022-11-10T04:57:07.843Z,15.30
2022-11-10T04:59:52.917Z,15.17
2022-11-10T05:02:39.799Z,14.77
2022-11-10T05:05:25.320Z,15.40
2022-11-10T05:08:10.592Z,15.27
2022-11-10T05:10:55.651Z,14.60
2022-11-10T05:13:41.178Z,15.80
2022-11-10T05:16:26.091Z,15.53
2022-11-10T05:19:11.213Z,15.43
2022-11-10T05:21:56.464Z,16.10
2022-11-10T05:24:41.670Z,16.23
2022-11-10T05:27:26.777Z,16.20
2022-11-10T05:30:12.073Z,16.13
2022-11-10T05:32:57.269Z,17.37
2022-11-10T05:35:42.764Z,16.60
2022-11-10T05:38:28.026Z,16.77
2022-11-10T05:41:13.034Z,18.03
2022-11-10T05:43:58.190Z,16.97
2022-11-10T05:46:43.085Z,17.73
2022-11-10T05:49:28.112Z,17.97
2022-11-10T05:52:13.455Z,18.63
2022-11-10T05:54:58.396Z,18.67
2022-11-10T05:57:47.890Z,17.63
2022-11-10T06:00:33.510Z,17.23
2022-11-10T06:03:19.648Z,19.13
2022-11-10T06:06:05.375Z,18.47
2022-11-10T06:08:50.634Z,19.30
2022-11-10T06:11:36.117Z,18.97
2022-11-10T06:14:21.494Z,19.07
2022-11-10T06:17:06.670Z,19.77
2022-11-10T06:19:51.840Z,20.20
2022-11-10T06:22:36.862Z,18.83
2022-11-10T06:25:22.160Z,20.97
2022-11-10T06:28:08.668Z,18.67
2022-11-10T06:30:57.997Z,18.93
2022-11-10T06:33:43.178Z,19.47
2022-11-10T06:36:28.060Z,18.50
2022-11-10T06:39:13.501Z,18.50
2022-11-10T06:41:58.387Z,19.77
2022-11-10T06:44:43.313Z,19.43
2022-11-10T06:47:29.671Z,20.00
2022-11-10T06:50:15.138Z,19.90
2022-11-10T06:53:00.594Z,19.77
2022-11-10T06:55:45.876Z,20.40
2022-11-10T06:58:31.199Z,19.53
2022-11-10T07:01:19.999Z,19.93
2022-11-10T07:04:19.589Z,19.70
2022-11-10T07:07:06.127Z,19.93
2022-11-10T07:09:51.197Z,20.07
2022-11-10T07:12:36.553Z,19.43
2022-11-10T07:15:21.570Z,19.23
2022-11-10T07:18:06.480Z,18.90
2022-11-10T07:20:51.573Z,20.47
2022-11-10T07:23:36.641Z,19.27
2022-11-10T07:26:21.970Z,18.37
2022-11-10T07:29:07.312Z,18.07
2022-11-10T07:31:53.004Z,18.63
2022-11-10T07:34:38.535Z,18.40
2022-11-10T07:37:23.383Z,19.13
2022-11-10T07:40:08.925Z,17.77
2022-11-10T07:42:54.025Z,18.87
2022-11-10T07:45:38.959Z,19.43
2022-11-10T07:48:24.345Z,17.90
2022-11-10T07:51:09.597Z,17.60
2022-11-10T07:53:54.905Z,18.47
2022-11-10T07:56:39.801Z,18.97
2022-11-10T07:59:24.988Z,17.93
2022-11-10T08:02:11.625Z,17.60
2022-11-10T08:04:56.370Z,18.00
2022-11-10T08:07:41.685Z,17.63
2022-11-10T08:10:28.379Z,18.47
2022-11-10T08:13:13.971Z,16.97
2022-11-10T08:15:59.535Z,18.20
2022-11-10T08:18:44.555Z,16.97
2022-11-10T08:21:29.564Z,18.13
2022-11-10T08:24:14.648Z,16.60
2022-11-10T08:26:59.907Z,16.60
2022-11-10T08:29:44.688Z,16.47
2022-11-10T08:32:29.976Z,16.43
2022-11-10T08:35:14.932Z,16.47
2022-11-10T08:38:15.876Z,16.63
2022-11-10T08:41:00.777Z,15.13
2022-11-10T08:43:46.004Z,16.50
2022-11-10T08:46:31.212Z,15.40
2022-11-10T08:49:16.090Z,14.17
2022-11-10T08:52:01.910Z,13.77
2022-11-10T08:54:46.892Z,13.53
2022-11-10T08:57:32.163Z,12.67
2022-11-10T09:00:18.011Z,14.30
2022-11-10T09:03:14.521Z,14.23
2022-11-10T09:05:59.645Z,13.23
2022-11-10T09:08:44.603Z,13.07
2022-11-10T09:11:30.814Z,12.83
2022-11-10T09:14:15.743Z,12.97
2022-11-10T09:17:00.909Z,12.10
2022-11-10T09:19:46.811Z,12.67
2022-11-10T09:22:32.106Z,12.57
2022-11-10T09:25:17.705Z,12.23
2022-11-10T09:28:02.991Z,13.20
2022-11-10T09:30:49.763Z,12.13
2022-11-10T09:33:34.635Z,12.13
2022-11-10T09:36:19.831Z,12.40
2022-11-10T09:39:05.222Z,11.50
2022-11-10T09:41:50.228Z,11.60
2022-11-10T09:44:51.941Z,10.87
2022-11-10T09:47:58.219Z,11.73
2022-11-10T09:50:54.372Z,11.13
2022-11-10T09:53:48.031Z,10.90
2022-11-10T09:56:35.344Z,11.30
2022-11-10T09:59:26.491Z,11.70
2022-11-10T10:02:35.663Z,10.73
2022-11-10T10:05:46.474Z,11.07
2022-11-10T10:08:52.555Z,11.00
2022-11-10T10:12:03.764Z,10.77
2022-11-10T10:15:09.393Z,9.60
2022-11-10T10:18:09.321Z,9.90
2022-11-10T10:21:12.992Z,9.37
2022-11-10T10:24:12.661Z,8.10
2022-11-10T10:27:06.501Z,8.47
2022-11-10T10:29:52.086Z,9.97
2022-11-10T10:32:37.241Z,8.37
2022-11-10T10:35:22.584Z,8.73
2022-11-10T10:38:36.377Z,7.90
2022-11-10T10:41:30.347Z,7.90
2022-11-10T10:44:18.845Z,7.47
2022-11-10T10:47:05.120Z,7.13
2022-11-10T10:49:50.738Z,7.20
2022-11-10T10:52:36.262Z,7.27
2022-11-10T10:55:28.135Z,6.90
2022-11-10T10:58:24.419Z,5.93
2022-11-10T11:01:16.174Z,6.20
2022-11-10T11:04:06.778Z,6.37
2022-11-10T11:07:00.892Z,5.40
2022-11-10T11:09:46.072Z,5.70
2022-11-10T11:12:33.862Z,5.10
2022-11-10T11:15:25.678Z,5.30
2022-11-10T11:18:17.372Z,5.07
2022-11-10T11:21:09.968Z,4.67
2022-11-10T11:24:06.986Z,4.70
2022-11-10T11:26:59.477Z,4.40
2022-11-10T11:30:03.536Z,3.90
2022-11-10T11:33:02.633Z,3.93
2022-11-10T11:35:57.394Z,4.63
2022-11-10T11:38:56.102Z,4.17
2022-11-10T11:42:06.573Z,3.90
2022-11-10T11:45:20.713Z,4.30
2022-11-10T11:48:24.644Z,4.67
2022-11-10T11:51:35.958Z,3.97
2022-11-10T11:54:51.046Z,3.83
2022-11-10T11:57:44.888Z,3.73
2022-11-10T12:00:40.901Z,3.20
2022-11-10T12:03:58.165Z,3.27
2022-11-10T12:06:50.312Z,3.83
2022-11-10T12:09:46.973Z,3.20
2022-11-10T12:12:49.532Z,3.30
2022-11-10T12:15:56.021Z,3.40
2022-11-10T12:18:58.214Z,2.90
2022-11-10T12:21:51.379Z,2.80
2022-11-10T12:24:51.092Z,3.07
2022-11-10T12:27:49.440Z,3.17
2022-11-10T12:30:35.736Z,3.07
2022-11-10T12:33:45.693Z,2.70
2022-11-10T12:36:32.450Z,3.10
2022-11-10T12:39:22.959Z,2.83
2022-11-10T12:42:16.718Z,3.33
2022-11-10T12:45:06.055Z,2.93
2022-11-10T12:47:53.243Z,3.10
2022-11-10T12:50:59.105Z,2.30
2022-11-10T12:53:45.781Z,3.53
2022-11-10T12:56:38.000Z,3.17
2022-11-10T12:59:33.733Z,2.80
2022-11-10T13:02:30.073Z,2.93
2022-11-10T13:05:15.056Z,2.83
2022-11-10T13:08:13.512Z,3.13
2022-11-10T13:11:06.619Z,3.03
2022-11-10T13:13:59.461Z,3.33
2022-11-10T13:16:49.545Z,3.00
2022-11-10T13:19:34.576Z,2.80
2022-11-10T13:22:40.840Z,2.80
2022-11-10T13:25:38.078Z,3.07
2022-11-10T13:28:48.349Z,2.63
2022-11-10T13:31:33.157Z,2.90
2022-11-10T13:34:17.861Z,2.70
2022-11-10T13:37:24.198Z,2.30
2022-11-10T13:40:18.222Z,3.23
2022-11-10T13:43:03.309Z,2.70
2022-11-10T13:45:48.718Z,2.73
2022-11-10T13:49:01.165Z,2.23
2022-11-10T13:52:06.586Z,2.77
2022-11-10T13:55:02.916Z,3.00
2022-11-10T13:58:03.008Z,3.00
2022-11-10T14:00:50.570Z,2.60
2022-11-10T14:03:53.244Z,2.67
2022-11-10T14:06:49.997Z,2.67
2022-11-10T14:09:41.776Z,2.73
2022-11-10T14:12:35.482Z,3.40
2022-11-10T14:15:29.861Z,2.53
2022-11-10T14:18:22.522Z,3.13
2022-11-10T14:21:12.195Z,3.10
2022-11-10T14:24:04.326Z,2.87
2022-11-10T14:26:56.610Z,3.37
2022-11-10T14:29:42.325Z,3.13
2022-11-10T14:32:27.607Z,2.57
2022-11-10T14:35:25.707Z,2.93
2022-11-10T14:38:22.004Z,2.90
2022-11-10T14:41:16.491Z,3.03
2022-11-10T14:44:05.373Z,3.60
2022-11-10T14:46:50.826Z,4.00
2022-11-10T14:49:35.870Z,2.90
2022-11-10T14:52:22.194Z,3.10
2022-11-10T14:55:13.961Z,3.07
2022-11-10T14:58:12.413Z,3.30
2022-11-10T15:00:58.771Z,4.30
2022-11-10T15:03:44.239Z,3.60
2022-11-10T15:06:30.403Z,4.03
2022-11-10T15:09:29.732Z,3.50
2022-11-10T15:12:29.457Z,4.10
2022-11-10T15:15:19.045Z,3.80
2022-11-10T15:18:04.188Z,4.33
2022-11-10T15:21:00.758Z,5.43
2022-11-10T15:24:01.669Z,3.40
2022-11-10T15:26:47.443Z,2.90
2022-11-10T15:29:33.623Z,3.33
2022-11-10T15:32:21.332Z,3.07
2022-11-10T15:35:31.545Z,3.50
2022-11-10T15:38:20.691Z,2.97
2022-11-10T15:41:15.847Z,3.37
2022-11-10T15:44:21.342Z,2.70
2022-11-10T15:47:10.282Z,3.23
2022-11-10T15:49:55.409Z,2.93
2022-11-10T15:52:40.878Z,2.97
2022-11-10T15:55:26.004Z,2.63
2022-11-10T15:58:18.609Z,3.30
2022-11-10T16:01:04.094Z,3.43
2022-11-10T16:03:49.485Z,3.23
2022-11-10T16:06:34.834Z,3.00
2022-11-10T16:09:20.275Z,2.67
2022-11-10T16:12:05.619Z,3.47
2022-11-10T16:14:53.078Z,2.97
2022-11-10T16:17:38.316Z,3.43
2022-11-10T16:20:23.420Z,3.63
2022-11-10T16:23:09.281Z,7.00
2022-11-10T16:25:56.129Z,7.07
2022-11-10T16:28:44.115Z,7.77
2022-11-10T16:31:30.237Z,6.27
2022-11-10T16:34:15.446Z,6.60
2022-11-10T16:37:01.132Z,6.20
2022-11-10T16:39:46.307Z,5.63
2022-11-10T16:42:31.665Z,6.00
2022-11-10T16:45:22.331Z,5.17
2022-11-10T16:48:07.654Z,5.33
2022-11-10T16:50:55.551Z,6.90
2022-11-10T16:53:41.669Z,6.10
2022-11-10T16:56:27.312Z,10.00
2022-11-10T16:59:13.547Z,6.73
2022-11-10T17:01:58.984Z,6.73
2022-11-10T17:04:44.056Z,5.60
2022-11-10T17:07:29.741Z,5.83
2022-11-10T17:10:17.004Z,7.57
2022-11-10T17:13:03.074Z,7.30
2022-11-10T17:15:48.515Z,6.13
2022-11-10T17:18:35.213Z,5.17
2022-11-10T17:21:21.574Z,7.93
2022-11-10T17:24:08.236Z,8.37
2022-11-10T17:26:53.443Z,5.93
2022-11-10T17:29:38.577Z,5.20
2022-11-10T17:32:43.108Z,4.47
2022-11-10T17:35:28.774Z,4.40
2022-11-10T17:38:21.013Z,3.97
2022-11-10T17:41:09.236Z,3.67
2022-11-10T17:43:54.414Z,3.13
2022-11-10T17:46:39.888Z,3.77
2022-11-10T17:49:24.935Z,4.13
2022-11-10T17:52:18.227Z,4.00
2022-11-10T17:55:03.426Z,4.50
2022-11-10T17:57:49.062Z,4.00
2022-11-10T18:00:33.926Z,3.40
2022-11-10T18:03:21.591Z,3.40
2022-11-10T18:06:07.479Z,3.40
2022-11-10T18:08:52.752Z,4.30
2022-11-10T18:11:38.402Z,7.63
2022-11-10T18:14:23.400Z,6.50
2022-11-10T18:17:09.116Z,5.63
2022-11-10T18:19:54.118Z,4.50
2022-11-10T18:22:40.181Z,5.10
2022-11-10T18:25:25.189Z,5.40
2022-11-10T18:28:13.858Z,5.37
2022-11-10T18:31:05.366Z,5.57
2022-11-10T18:33:53.543Z,6.63
2022-11-10T18:36:38.748Z,5.87
2022-11-10T18:39:23.960Z,5.87
2022-11-10T18:42:10.255Z,5.00
2022-11-10T18:44:55.408Z,5.47
2022-11-10T18:47:40.436Z,5.93
2022-11-10T18:50:25.470Z,5.37
2022-11-10T18:53:10.564Z,5.10
2022-11-10T18:55:56.257Z,4.97
2022-11-10T18:58:42.047Z,5.40
2022-11-10T19:01:27.614Z,5.67
2022-11-10T19:04:13.649Z,5.13
2022-11-10T19:06:58.604Z,5.27
2022-11-10T19:09:44.309Z,5.60
2022-11-10T19:12:30.898Z,5.17
2022-11-10T19:15:15.939Z,5.50
2022-11-10T19:18:04.403Z,5.77
2022-11-10T19:20:49.725Z,5.03
2022-11-10T19:23:34.909Z,4.63
2022-11-10T19:26:22.772Z,5.37
2022-11-10T19:29:08.577Z,4.90
2022-11-10T19:31:53.562Z,4.40
2022-11-10T19:34:38.672Z,4.20
2022-11-10T19:37:23.623Z,3.73
2022-11-10T19:40:09.684Z,4.53
2022-11-10T19:42:54.846Z,5.30
2022-11-10T19:45:41.089Z,5.70
2022-11-10T19:48:26.398Z,5.20
2022-11-10T19:51:13.965Z,5.43
2022-11-10T19:54:01.554Z,4.80
2022-11-10T19:56:46.813Z,5.07
2022-11-10T19:59:32.525Z,4.63
2022-11-10T20:02:17.565Z,4.40
2022-11-10T20:05:18.125Z,3.60
2022-11-10T20:08:11.313Z,3.53
2022-11-10T20:11:01.820Z,3.80
2022-11-10T20:13:55.018Z,3.27
2022-11-10T20:16:40.548Z,2.83
2022-11-10T20:19:25.812Z,3.23
2022-11-10T20:22:12.769Z,3.03
2022-11-10T20:24:58.127Z,3.33
2022-11-10T20:27:43.153Z,2.77
2022-11-10T20:30:28.187Z,3.50
2022-11-10T20:33:13.227Z,2.83
2022-11-10T20:36:14.759Z,3.37
2022-11-10T20:39:02.684Z,3.37
2022-11-10T20:41:48.212Z,3.17
2022-11-10T20:44:33.758Z,2.90
2022-11-10T20:47:19.261Z,3.40
2022-11-10T20:50:11.514Z,3.20
2022-11-10T20:52:59.447Z,2.67
2022-11-10T20:55:53.404Z,2.70
2022-11-10T20:58:39.619Z,2.77
2022-11-10T21:01:24.715Z,2.47
2022-11-10T21:04:10.895Z,2.60
2022-11-10T21:06:56.116Z,2.47
2022-11-10T21:09:41.336Z,2.50
2022-11-10T21:12:44.850Z,2.73
2022-11-10T21:15:29.979Z,2.67
2022-11-10T21:18:14.841Z,2.50
2022-11-10T21:21:00.227Z,2.57
2022-11-10T21:23:45.228Z,2.60
2022-11-10T21:26:31.633Z,2.70
2022-11-10T21:29:16.746Z,2.63
2022-11-10T21:32:01.921Z,2.80
2022-11-10T21:34:47.206Z,2.97
2022-11-10T21:37:32.582Z,3.00
2022-11-10T21:40:17.857Z,2.53
2022-11-10T21:43:03.605Z,2.50
2022-11-10T21:45:48.794Z,2.50
2022-11-10T21:48:34.926Z,2.90
2022-11-10T21:51:21.026Z,3.07
2022-11-10T21:54:06.502Z,2.70
2022-11-10T21:56:51.390Z,2.20
2022-11-10T21:59:36.325Z,2.43
2022-11-10T22:02:21.296Z,2.60
2022-11-10T22:05:06.602Z,2.63
2022-11-10T22:07:51.745Z,2.37
2022-11-10T22:10:55.702Z,2.40
2022-11-10T22:13:59.364Z,2.20
2022-11-10T22:17:05.460Z,2.00
2022-11-10T22:19:50.429Z,2.80
2022-11-10T22:22:35.573Z,2.60
2022-11-10T22:25:20.701Z,2.30
2022-11-10T22:28:06.687Z,2.40
2022-11-10T22:30:51.589Z,2.10
2022-11-10T22:33:38.722Z,2.30
2022-11-10T22:36:23.615Z,2.50
2022-11-10T22:39:09.119Z,2.83
2022-11-10T22:42:12.686Z,2.47
2022-11-10T22:44:57.979Z,2.50
2022-11-10T22:48:03.352Z,2.30
2022-11-10T22:50:55.717Z,2.70
2022-11-10T22:53:41.285Z,2.50
2022-11-10T22:56:26.301Z,2.60
2022-11-10T22:59:12.033Z,2.73
2022-11-10T23:01:57.204Z,2.70
2022-11-10T23:04:42.099Z,2.50
2022-11-10T23:07:28.469Z,2.63
2022-11-10T23:10:13.926Z,2.40
2022-11-10T23:12:59.054Z,2.53
2022-11-10T23:15:46.379Z,2.47
2022-11-10T23:18:31.928Z,2.50
2022-11-10T23:21:19.236Z,2.27
2022-11-10T23:24:04.504Z,2.40
2022-11-10T23:26:49.365Z,2.80
2022-11-10T23:29:34.222Z,2.40
2022-11-10T23:32:19.469Z,2.63
2022-11-10T23:35:05.247Z,2.30
2022-11-10T23:37:50.660Z,2.63
2022-11-10T23:40:35.855Z,2.40
2022-11-10T23:43:21.308Z,2.37
2022-11-10T23:46:08.124Z,2.80
2022-11-10T23:48:53.576Z,2.30
2022-11-10T23:51:38.933Z,2.77
2022-11-10T23:54:23.806Z,2.40
2022-11-10T23:57:08.996Z,2.40
2022-11-10T23:59:54.089Z,2.30
